createdAt,value
2022-09-12T07:04:44.744Z,16.00
2022-09-12T07:07:13.123Z,13.13
2022-09-12T07:09:41.287Z,7.40
2022-09-12T07:12:09.405Z,11.02
2022-09-12T07:14:37.728Z,14.48
2022-09-12T07:17:06.105Z,11.68
2022-09-12T07:19:35.048Z,10.65
2022-09-12T07:22:03.752Z,11.70
2022-09-12T07:24:31.986Z,9.48
2022-09-12T07:27:00.096Z,12.30
2022-09-12T07:29:37.398Z,9.27
2022-09-12T07:32:09.650Z,7.63
2022-09-12T07:37:06.987Z,11.90
2022-09-12T07:39:35.174Z,12.40
2022-09-12T07:42:03.610Z,6.68
2022-09-12T07:44:32.855Z,6.75
2022-09-12T07:47:01.489Z,10.45
2022-09-12T07:49:30.640Z,8.35
2022-09-12T07:51:58.802Z,7.57
2022-09-12T07:54:26.921Z,8.35
2022-09-12T07:56:55.721Z,10.68
2022-09-12T07:59:48.482Z,8.65
2022-09-12T08:02:21.061Z,6.53
2022-09-12T08:04:49.385Z,13.18
2022-09-12T08:07:19.292Z,10.90
2022-09-12T08:09:47.584Z,8.45
2022-09-12T08:12:16.754Z,9.75
2022-09-12T08:14:45.161Z,9.27
2022-09-12T08:17:14.422Z,11.90
2022-09-12T08:19:42.819Z,8.95
2022-09-12T08:22:11.660Z,13.10
2022-09-12T08:24:39.844Z,5.70
2022-09-12T08:27:08.350Z,7.13
2022-09-12T08:29:36.722Z,7.50
2022-09-12T08:32:04.846Z,9.05
2022-09-12T08:34:32.930Z,8.50
2022-09-12T08:37:01.306Z,8.30
2022-09-12T08:39:33.370Z,10.60
2022-09-12T08:42:04.250Z,8.57
2022-09-12T08:44:54.707Z,6.80
2022-09-12T08:47:32.814Z,11.05
2022-09-12T08:50:11.775Z,9.98
2022-09-12T08:52:49.603Z,12.73
2022-09-12T08:55:25.744Z,5.88
2022-09-12T08:57:54.473Z,10.15
2022-09-12T09:00:23.075Z,11.20
2022-09-12T09:03:18.932Z,10.25
2022-09-12T09:05:51.543Z,12.50
2022-09-12T09:08:35.599Z,15.20
2022-09-12T09:11:22.850Z,8.70
2022-09-12T09:14:27.043Z,7.07
2022-09-12T09:16:57.246Z,8.18
2022-09-12T09:19:50.114Z,10.57
2022-09-12T09:22:36.211Z,8.07
2022-09-12T09:25:23.148Z,13.55
2022-09-12T09:27:54.305Z,11.13
2022-09-12T09:30:22.714Z,6.03
2022-09-12T09:32:53.895Z,10.40
2022-09-12T09:35:43.735Z,9.40
2022-09-12T09:38:20.830Z,13.98
2022-09-12T09:41:04.271Z,10.52
2022-09-12T09:43:32.561Z,8.35
2022-09-12T09:46:02.103Z,7.97
2022-09-12T09:48:33.082Z,10.63
2022-09-12T09:51:03.742Z,14.65
2022-09-12T09:53:53.815Z,5.32
2022-09-12T09:56:44.895Z,10.20
2022-09-12T09:59:33.846Z,8.25
2022-09-12T10:02:23.776Z,6.07
2022-09-12T10:04:57.702Z,9.65
2022-09-12T10:07:26.491Z,9.95
2022-09-12T10:10:07.146Z,6.78
2022-09-12T10:12:35.978Z,9.93
2022-09-12T10:15:16.380Z,8.57
2022-09-12T10:17:46.902Z,9.80
2022-09-12T10:20:40.479Z,7.55
2022-09-12T10:23:35.147Z,12.02
2022-09-12T10:26:09.256Z,6.93
2022-09-12T10:28:51.246Z,7.22
2022-09-12T10:31:29.189Z,6.45
2022-09-12T10:33:59.963Z,9.80
2022-09-12T10:36:40.077Z,7.10
2022-09-12T10:39:17.603Z,9.95
2022-09-12T10:41:46.069Z,9.30
2022-09-12T10:44:26.293Z,9.68
2022-09-12T10:46:55.103Z,6.90
2022-09-12T10:49:38.238Z,9.73
2022-09-12T10:52:24.388Z,12.18
2022-09-12T10:54:54.025Z,9.15
2022-09-12T10:57:25.172Z,8.70
2022-09-12T11:00:18.165Z,7.82
2022-09-12T11:03:10.719Z,9.05
2022-09-12T11:05:54.209Z,6.63
2022-09-12T11:08:33.987Z,13.95
2022-09-12T11:11:05.371Z,7.10
2022-09-12T11:13:57.983Z,7.13
2022-09-12T11:16:58.528Z,6.03
2022-09-12T11:19:41.923Z,8.35
2022-09-12T11:22:28.720Z,13.82
2022-09-12T11:25:33.489Z,6.07
2022-09-12T11:28:26.138Z,8.35
2022-09-12T11:31:03.377Z,13.88
2022-09-12T11:33:44.127Z,9.10
2022-09-12T11:36:36.136Z,9.93
2022-09-12T11:39:14.233Z,12.00
2022-09-12T11:41:50.163Z,6.63
2022-09-12T11:44:23.458Z,11.40
2022-09-12T11:46:52.209Z,5.55
2022-09-12T11:49:32.303Z,10.15
2022-09-12T11:52:18.432Z,6.50
2022-09-12T11:55:00.545Z,11.30
2022-09-12T11:57:40.655Z,11.68
2022-09-12T12:00:15.058Z,13.23
2022-09-12T12:03:21.728Z,8.23
2022-09-12T12:06:01.861Z,10.35
2022-09-12T12:08:32.063Z,12.00
2022-09-12T12:11:04.438Z,16.27
2022-09-12T12:13:36.302Z,18.25
2022-09-12T12:19:20.058Z,7.00
2022-09-12T12:21:49.582Z,13.57
2022-09-12T12:24:22.066Z,5.93
2022-09-12T12:27:02.810Z,8.20
2022-09-12T12:29:44.463Z,7.15
2022-09-12T12:32:17.794Z,4.50
2022-09-12T12:34:46.865Z,8.15
2022-09-12T12:37:19.842Z,9.50
2022-09-12T12:39:52.052Z,10.23
2022-09-12T12:45:27.773Z,13.40
2022-09-12T12:48:05.070Z,5.57
2022-09-12T12:50:35.829Z,7.55
2022-09-12T12:53:25.497Z,5.85
2022-09-12T12:55:55.755Z,7.93
2022-09-12T12:58:37.645Z,5.20
2022-09-12T13:01:11.992Z,14.98
2022-09-12T13:04:04.423Z,6.63
2022-09-12T13:06:38.564Z,6.07
2022-09-12T13:09:23.507Z,6.22
2022-09-12T13:12:04.570Z,6.93
2022-09-12T13:15:08.260Z,7.85
2022-09-12T13:17:42.097Z,5.75
2022-09-12T13:20:28.280Z,10.80
2022-09-12T13:22:57.620Z,7.93
2022-09-12T13:25:35.345Z,11.10
2022-09-12T13:28:21.750Z,8.00
2022-09-12T13:31:30.705Z,10.70
2022-09-12T13:34:00.711Z,6.70
2022-09-12T13:36:57.013Z,9.48
2022-09-12T13:39:39.326Z,9.23
2022-09-12T13:42:13.754Z,9.07
2022-09-12T13:44:48.765Z,7.43
2022-09-12T13:47:26.026Z,11.32
2022-09-12T13:49:54.537Z,10.45
2022-09-12T13:52:26.862Z,7.38
2022-09-12T13:54:56.994Z,6.03
2022-09-12T13:57:38.545Z,8.68
2022-09-12T14:02:44.997Z,8.45
2022-09-12T14:05:26.359Z,8.45
2022-09-12T14:08:01.495Z,6.13
2022-09-12T14:10:34.003Z,9.68
2022-09-12T14:13:17.124Z,8.57
2022-09-12T14:15:47.678Z,9.95
2022-09-12T14:18:37.464Z,9.88
2022-09-12T14:21:30.452Z,10.20
2022-09-12T14:24:00.816Z,7.32
2022-09-12T14:26:35.175Z,14.10
2022-09-12T14:29:06.880Z,9.95
2022-09-12T14:31:42.536Z,5.63
2022-09-12T14:34:19.380Z,8.40
2022-09-12T14:36:56.346Z,10.05
2022-09-12T14:39:41.916Z,7.03
2022-09-12T14:42:16.781Z,8.50
2022-09-12T14:45:03.622Z,16.23
2022-09-12T14:47:39.080Z,10.73
2022-09-12T14:50:18.202Z,15.73
2022-09-12T14:52:46.528Z,10.55
2022-09-12T14:55:23.969Z,5.07
2022-09-12T14:58:23.497Z,8.00
2022-09-12T15:01:22.968Z,5.63
2022-09-12T15:03:55.945Z,8.13
2022-09-12T15:06:33.166Z,6.50
2022-09-12T15:09:07.479Z,6.07
2022-09-12T15:11:41.022Z,7.88
2022-09-12T15:14:15.447Z,10.48
2022-09-12T15:16:44.266Z,8.10
2022-09-12T15:19:12.522Z,7.43
2022-09-12T15:21:40.589Z,9.70
2022-09-12T15:24:09.801Z,8.38
2022-09-12T15:26:37.922Z,7.43
2022-09-12T15:29:06.001Z,6.78
2022-09-12T15:31:34.388Z,7.90
2022-09-12T15:34:03.363Z,5.78
2022-09-12T15:36:32.028Z,7.72
2022-09-12T15:39:00.533Z,11.02
2022-09-12T15:41:35.719Z,9.38
2022-09-12T15:44:11.352Z,9.57
2022-09-12T15:46:40.132Z,6.07
2022-09-12T15:49:10.853Z,9.25
2022-09-12T15:51:39.119Z,6.03
2022-09-12T15:54:07.282Z,10.52
2022-09-12T15:56:35.716Z,8.32
2022-09-12T15:59:04.154Z,7.68
2022-09-12T16:01:32.532Z,8.55
2022-09-12T16:04:02.236Z,6.85
2022-09-12T16:06:36.790Z,8.75
2022-09-12T16:09:05.727Z,7.75
2022-09-12T16:11:37.013Z,7.43
2022-09-12T16:14:06.154Z,8.90
2022-09-12T16:16:35.159Z,8.93
2022-09-12T16:19:04.314Z,7.28
2022-09-12T16:21:34.745Z,12.95
2022-09-12T16:24:03.343Z,7.10
2022-09-12T16:26:33.960Z,11.05
2022-09-12T16:29:02.756Z,6.95
2022-09-12T16:31:31.256Z,14.38
2022-09-12T16:33:59.595Z,11.52
2022-09-12T16:36:27.748Z,15.15
2022-09-12T16:38:56.109Z,12.07
2022-09-12T16:41:25.328Z,12.82
2022-09-12T16:43:54.042Z,9.68
2022-09-12T16:46:30.664Z,14.25
2022-09-12T16:49:00.021Z,12.23
2022-09-12T16:51:32.243Z,15.45
2022-09-12T16:54:00.512Z,11.88
2022-09-12T16:56:28.651Z,9.68
2022-09-12T16:58:57.045Z,12.73
2022-09-12T17:01:26.570Z,10.05
2022-09-12T17:03:57.096Z,17.88
2022-09-12T17:06:26.859Z,17.15
2022-09-12T17:08:58.499Z,16.02
2022-09-12T17:11:32.426Z,15.85
2022-09-12T17:14:06.480Z,13.13
2022-09-12T17:16:45.924Z,18.23
2022-09-12T17:19:22.470Z,10.32
2022-09-12T17:21:50.885Z,15.10
2022-09-12T17:24:20.076Z,13.50
2022-09-12T17:26:48.317Z,14.45
2022-09-12T17:29:17.293Z,13.38
2022-09-12T17:31:46.518Z,16.50
2022-09-12T17:34:17.989Z,15.20
2022-09-12T17:36:48.494Z,8.77
2022-09-12T17:39:17.055Z,25.02
2022-09-12T17:41:46.274Z,20.13
2022-09-12T17:44:18.733Z,31.52
2022-09-12T17:46:46.997Z,16.52
2022-09-12T17:49:16.902Z,13.63
2022-09-12T17:51:45.506Z,17.90
2022-09-12T17:54:16.232Z,17.70
2022-09-12T17:56:46.677Z,12.38
2022-09-12T17:59:18.216Z,20.77
2022-09-12T18:02:08.185Z,15.82
2022-09-12T18:04:36.686Z,21.95
2022-09-12T18:07:06.657Z,13.15
2022-09-12T18:09:36.454Z,21.80
2022-09-12T18:12:05.346Z,16.42
2022-09-12T18:14:34.247Z,19.90
2022-09-12T18:17:02.535Z,15.13
2022-09-12T18:19:30.738Z,15.55
2022-09-12T18:21:59.184Z,13.77
2022-09-12T18:24:27.594Z,13.80
2022-09-12T18:26:59.294Z,16.13
2022-09-12T18:29:28.130Z,19.30
2022-09-12T18:31:56.406Z,14.57
2022-09-12T18:34:24.591Z,15.40
2022-09-12T18:36:55.008Z,10.93
2022-09-12T18:39:27.519Z,10.90
2022-09-12T18:41:56.439Z,14.95
2022-09-12T18:44:24.545Z,19.83
2022-09-12T18:46:52.983Z,13.18
2022-09-12T18:49:21.405Z,13.20
2022-09-12T18:51:49.456Z,16.08
2022-09-12T18:54:18.067Z,12.38
2022-09-12T18:56:46.665Z,16.90
2022-09-12T18:59:15.162Z,21.65
2022-09-12T19:01:44.385Z,14.18
2022-09-12T19:04:14.210Z,11.68
2022-09-12T19:06:44.810Z,14.75
2022-09-12T19:09:15.670Z,17.50
2022-09-12T19:11:48.985Z,11.75
2022-09-12T19:14:19.255Z,14.70
2022-09-12T19:16:47.454Z,12.30
2022-09-12T19:19:15.628Z,12.38
2022-09-12T19:21:44.847Z,12.88
2022-09-12T19:24:14.518Z,15.23
2022-09-12T19:26:43.162Z,10.77
2022-09-12T19:29:13.939Z,13.60
2022-09-12T19:31:45.184Z,18.27
2022-09-12T19:34:14.444Z,14.45
2022-09-12T19:36:45.873Z,13.63
2022-09-12T19:39:16.388Z,12.98
2022-09-12T19:41:45.287Z,14.70
2022-09-12T19:44:19.329Z,15.98
2022-09-12T19:46:47.976Z,13.57
2022-09-12T19:49:16.147Z,17.50
2022-09-12T19:51:44.531Z,17.73
2022-09-12T19:54:13.750Z,19.65
2022-09-12T19:56:41.929Z,16.05
2022-09-12T19:59:10.460Z,17.27
2022-09-12T20:01:38.697Z,14.18
2022-09-12T20:04:07.149Z,16.52
2022-09-12T20:06:35.950Z,21.20
2022-09-12T20:09:04.656Z,17.95
2022-09-12T20:11:32.915Z,17.85
2022-09-12T20:14:01.381Z,21.00
2022-09-12T20:16:30.103Z,20.95
2022-09-12T20:19:07.127Z,22.70
2022-09-12T20:21:36.581Z,25.63
2022-09-12T20:24:08.882Z,20.90
2022-09-12T20:26:41.358Z,19.88
2022-09-12T20:29:10.236Z,23.10
2022-09-12T20:31:43.745Z,20.33
2022-09-12T20:34:19.610Z,20.52
2022-09-12T20:36:50.402Z,25.95
2022-09-12T20:39:21.446Z,21.13
2022-09-12T20:41:49.942Z,22.50
2022-09-12T20:44:18.363Z,22.08
2022-09-12T20:46:46.886Z,22.08
2022-09-12T20:49:15.081Z,28.48
2022-09-12T20:51:43.549Z,21.23
2022-09-12T20:54:12.047Z,22.15
2022-09-12T20:56:40.170Z,21.95
2022-09-12T20:59:10.234Z,25.55
2022-09-12T21:01:38.429Z,26.33
2022-09-12T21:04:06.659Z,18.90
2022-09-12T21:06:35.073Z,21.27
2022-09-12T21:09:03.138Z,18.92
2022-09-12T21:11:40.056Z,22.67
2022-09-12T21:14:11.877Z,24.50
2022-09-12T21:16:42.616Z,21.95
2022-09-12T21:19:11.006Z,24.05
2022-09-12T21:21:39.085Z,21.85
2022-09-12T21:24:07.621Z,21.02
2022-09-12T21:26:36.057Z,22.20
2022-09-12T21:29:04.247Z,24.40
2022-09-12T21:31:32.369Z,19.20
